Terminal Aerodrome Forecast
Issued by NWS St Louis, MO

Home | Current Version | Previous Version | Text Only | Print | Product List | Glossary On
Versions: 1 2 3 4 5 6 7 8 9 10 11 12 13 14 15 16 17 18 19 20 21
000
FTUS43 KLSX 291700
TAFCOU
TAF
KCOU 291723Z 2918/3018 20011KT P6SM VCTS SCT040CB
     FM292000 18008KT 5SM -TSRA SCT030CB BKN070
     FM300100 18008KT P6SM VCSH BKN050
     FM300600 19007KT P6SM BKN060
     FM301500 25007KT P6SM SCT030=

USA.gov is the U.S. government's official web portal to all federal, state and local government web resources and services.